createdAt,value
2022-08-24T00:03:00.480Z,2.20
2022-08-24T00:06:03.859Z,1.80
2022-08-24T00:09:07.851Z,1.90
2022-08-24T00:12:10.565Z,2.13
2022-08-24T00:15:16.636Z,2.37
2022-08-24T00:18:19.761Z,2.07
2022-08-24T00:21:22.772Z,2.28
2022-08-24T00:24:27.480Z,2.03
2022-08-24T00:27:30.228Z,1.90
2022-08-24T00:30:33.796Z,2.00
2022-08-24T00:33:36.691Z,2.07
2022-08-24T00:36:39.218Z,2.03
2022-08-24T00:39:43.595Z,1.90
2022-08-24T00:42:46.326Z,1.80
2022-08-24T00:45:51.456Z,1.83
2022-08-24T00:49:00.636Z,2.20
2022-08-24T00:52:07.339Z,1.90
2022-08-24T00:55:15.645Z,2.57
2022-08-24T00:58:22.175Z,2.60
2022-08-24T01:01:24.787Z,2.30
2022-08-24T01:04:32.347Z,1.95
2022-08-24T01:07:39.417Z,2.10
2022-08-24T01:10:45.392Z,2.27
2022-08-24T01:13:50.241Z,2.20
2022-08-24T01:17:10.497Z,2.20
2022-08-24T01:20:14.357Z,2.40
2022-08-24T01:23:30.185Z,2.37
2022-08-24T01:26:42.355Z,2.73
2022-08-24T01:29:46.128Z,1.90
2022-08-24T01:32:57.141Z,2.20
2022-08-24T01:36:02.905Z,2.03
2022-08-24T01:39:11.614Z,2.03
2022-08-24T01:42:14.754Z,2.27
2022-08-24T01:45:20.144Z,2.30
2022-08-24T01:48:23.366Z,2.30
2022-08-24T01:54:31.406Z,2.13
2022-08-24T01:57:33.995Z,2.37
2022-08-24T02:00:37.610Z,2.28
2022-08-24T02:03:40.355Z,2.50
2022-08-24T02:06:44.556Z,2.00
2022-08-24T02:09:48.661Z,2.47
2022-08-24T02:12:58.000Z,2.70
2022-08-24T02:16:01.077Z,2.07
2022-08-24T02:19:03.975Z,2.25
2022-08-24T02:22:07.331Z,2.25
2022-08-24T02:25:11.539Z,2.20
2022-08-24T02:28:17.203Z,2.17
2022-08-24T02:31:19.832Z,2.20
2022-08-24T02:34:22.560Z,2.47
2022-08-24T02:37:25.351Z,2.03
2022-08-24T02:40:29.953Z,2.33
2022-08-24T02:43:32.806Z,2.33
2022-08-24T02:46:41.319Z,2.60
2022-08-24T02:49:43.977Z,2.30
2022-08-24T02:52:46.913Z,2.28
2022-08-24T02:55:51.411Z,2.70
2022-08-24T02:58:54.486Z,2.40
2022-08-24T03:01:57.811Z,3.20
2022-08-24T03:08:03.183Z,2.50
2022-08-24T03:14:11.629Z,2.63
2022-08-24T03:17:14.207Z,2.70
2022-08-24T03:20:19.257Z,2.17
2022-08-24T03:23:23.585Z,2.40
2022-08-24T03:26:27.474Z,2.60
2022-08-24T03:29:33.750Z,3.00
2022-08-24T03:32:36.603Z,2.70
2022-08-24T03:35:39.709Z,3.00
2022-08-24T03:38:42.758Z,2.63
2022-08-24T03:41:46.821Z,2.78
2022-08-24T03:44:49.513Z,2.80
2022-08-24T03:47:52.507Z,3.20
2022-08-24T03:50:55.276Z,2.85
2022-08-24T03:53:59.684Z,2.67
2022-08-24T03:57:03.794Z,2.93
2022-08-24T04:00:09.902Z,3.37
2022-08-24T04:03:13.374Z,2.50
2022-08-24T04:06:17.818Z,3.23
2022-08-24T04:09:21.080Z,2.80
2022-08-24T04:12:25.129Z,2.63
2022-08-24T04:15:28.159Z,2.73
2022-08-24T04:18:30.761Z,3.00
2022-08-24T04:21:35.686Z,3.47
2022-08-24T04:24:38.416Z,3.00
2022-08-24T04:27:42.604Z,3.00
2022-08-24T04:30:47.608Z,3.23
2022-08-24T04:33:54.044Z,3.03
2022-08-24T04:36:56.813Z,3.73
2022-08-24T04:39:59.946Z,2.85
2022-08-24T04:43:04.104Z,3.03
2022-08-24T04:46:08.500Z,3.33
2022-08-24T04:49:11.653Z,3.40
2022-08-24T04:52:14.511Z,2.80
2022-08-24T04:55:17.603Z,2.80
2022-08-24T04:58:21.845Z,3.75
2022-08-24T05:01:26.454Z,3.27
2022-08-24T05:04:29.122Z,3.13
2022-08-24T05:07:33.993Z,3.07
2022-08-24T05:10:38.831Z,3.08
2022-08-24T05:13:42.830Z,2.90
2022-08-24T05:16:45.751Z,2.93
2022-08-24T05:19:56.297Z,3.00
2022-08-24T05:23:02.495Z,3.20
2022-08-24T05:26:08.713Z,2.80
2022-08-24T05:29:12.760Z,3.00
2022-08-24T05:32:18.100Z,3.10
2022-08-24T05:35:21.738Z,3.03
2022-08-24T05:38:25.097Z,3.30
2022-08-24T05:44:31.869Z,3.30
2022-08-24T05:47:35.511Z,3.40
2022-08-24T05:50:38.116Z,3.50
2022-08-24T05:53:41.353Z,3.40
2022-08-24T05:59:49.036Z,3.85
2022-08-24T06:02:52.827Z,2.83
2022-08-24T06:05:56.041Z,3.10
2022-08-24T06:09:01.698Z,2.97
2022-08-24T06:12:05.607Z,3.03
2022-08-24T06:15:11.504Z,3.10
2022-08-24T06:18:14.235Z,3.30
2022-08-24T06:21:22.022Z,3.70
2022-08-24T06:24:45.250Z,3.60
2022-08-24T06:27:47.027Z,3.70
2022-08-24T06:30:51.029Z,3.27
2022-08-24T06:33:53.910Z,3.43
2022-08-24T06:36:56.601Z,3.10
2022-08-24T06:40:00.083Z,3.50
2022-08-24T06:46:08.470Z,2.97
2022-08-24T06:49:11.892Z,3.43
2022-08-24T06:52:14.494Z,3.53
2022-08-24T06:55:17.226Z,3.60
2022-08-24T06:58:20.457Z,3.58
2022-08-24T07:01:26.075Z,3.00
2022-08-24T07:04:29.214Z,3.00
2022-08-24T07:10:34.744Z,3.33
2022-08-24T07:16:41.535Z,3.83
2022-08-24T07:19:44.230Z,3.40
2022-08-24T07:22:46.983Z,3.30
2022-08-24T07:25:54.160Z,3.58
2022-08-24T07:29:05.079Z,3.20
2022-08-24T07:32:10.251Z,3.20
2022-08-24T07:35:13.089Z,3.57
2022-08-24T07:38:15.856Z,3.17
2022-08-24T07:41:43.415Z,3.05
2022-08-24T07:44:41.414Z,3.70
2022-08-24T07:47:54.601Z,2.90
2022-08-24T07:50:59.602Z,3.30
2022-08-24T07:54:03.793Z,2.57
2022-08-24T07:57:09.941Z,2.70
2022-08-24T08:00:15.254Z,2.38
2022-08-24T08:03:19.412Z,2.40
2022-08-24T08:06:22.170Z,2.10
2022-08-24T08:09:24.879Z,1.90
2022-08-24T08:12:27.564Z,1.88
2022-08-24T08:15:30.364Z,1.73
2022-08-24T08:22:00.537Z,2.30
2022-08-24T08:25:03.864Z,2.17
2022-08-24T08:28:18.630Z,2.15
2022-08-24T08:31:29.135Z,1.67
2022-08-24T08:34:38.258Z,2.85
2022-08-24T08:37:41.427Z,1.60
2022-08-24T08:40:59.632Z,1.70
2022-08-24T08:44:04.806Z,1.70
2022-08-24T08:47:18.606Z,2.20
2022-08-24T08:50:26.354Z,1.67
2022-08-24T08:54:11.087Z,1.88
2022-08-24T08:57:29.512Z,1.95
2022-08-24T09:00:44.619Z,1.88
2022-08-24T09:04:09.588Z,1.55
2022-08-24T09:07:17.736Z,1.70
2022-08-24T09:10:31.969Z,1.67
2022-08-24T09:13:46.326Z,1.58
2022-08-24T09:17:00.897Z,1.98
2022-08-24T09:20:32.839Z,2.10
2022-08-24T09:23:47.675Z,1.50
2022-08-24T09:26:57.987Z,1.63
2022-08-24T09:30:09.201Z,1.40
2022-08-24T09:33:19.937Z,1.60
2022-08-24T09:36:31.413Z,1.10
2022-08-24T09:39:50.136Z,1.20
2022-08-24T09:43:06.918Z,1.10
2022-08-24T09:46:28.111Z,1.30
2022-08-24T09:50:06.981Z,3.67
2022-08-24T09:53:26.554Z,1.40
2022-08-24T09:56:39.268Z,0.88
2022-08-24T10:00:10.025Z,1.20
2022-08-24T10:03:26.276Z,1.13
2022-08-24T10:06:46.611Z,1.15
2022-08-24T10:09:57.512Z,1.20
2022-08-24T10:13:10.542Z,1.20
2022-08-24T10:16:22.687Z,1.10
2022-08-24T10:19:40.048Z,1.33
2022-08-24T10:23:04.795Z,1.45
2022-08-24T10:26:14.198Z,1.25
2022-08-24T10:29:32.777Z,1.63
2022-08-24T10:32:47.611Z,1.25
2022-08-24T10:36:09.628Z,1.30
2022-08-24T10:39:43.351Z,1.13
2022-08-24T10:43:27.198Z,1.08
2022-08-24T10:46:38.246Z,1.30
2022-08-24T10:50:31.144Z,1.13
2022-08-24T10:53:34.764Z,1.33
2022-08-24T10:56:42.483Z,1.02
2022-08-24T10:59:52.332Z,1.42
2022-08-24T11:03:09.274Z,1.00
2022-08-24T11:06:16.733Z,1.10
2022-08-24T11:09:20.028Z,1.10
2022-08-24T11:12:27.191Z,0.93
2022-08-24T11:15:30.705Z,0.98
2022-08-24T11:18:50.491Z,1.02
2022-08-24T11:21:55.134Z,1.25
2022-08-24T11:25:00.418Z,1.10
2022-08-24T11:28:06.158Z,0.93
2022-08-24T11:31:13.362Z,1.20
2022-08-24T11:34:21.848Z,0.90
2022-08-24T11:37:28.078Z,1.00
2022-08-24T11:40:37.576Z,1.20
2022-08-24T11:43:54.159Z,0.88
2022-08-24T11:47:02.716Z,1.00
2022-08-24T11:50:15.509Z,0.95
2022-08-24T11:53:26.046Z,0.88
2022-08-24T11:56:33.381Z,0.80
2022-08-24T11:59:45.398Z,1.23
2022-08-24T12:02:56.563Z,0.73
2022-08-24T12:06:06.752Z,1.17
2022-08-24T12:09:17.438Z,0.82
2022-08-24T12:12:23.912Z,0.77
2022-08-24T12:15:38.808Z,1.23
2022-08-24T12:18:56.984Z,1.05
2022-08-24T12:22:04.090Z,0.80
2022-08-24T12:25:30.797Z,0.90
2022-08-24T12:28:38.506Z,1.02
2022-08-24T12:31:45.244Z,0.80
2022-08-24T12:34:57.972Z,1.08
2022-08-24T12:38:05.571Z,0.52
2022-08-24T12:41:17.559Z,0.88
2022-08-24T12:44:25.790Z,0.80
2022-08-24T12:47:36.742Z,0.85
2022-08-24T12:50:46.516Z,1.08
2022-08-24T12:54:06.919Z,1.02
2022-08-24T12:57:28.432Z,1.08
2022-08-24T13:00:37.311Z,0.70
2022-08-24T13:03:42.070Z,0.80
2022-08-24T13:06:48.556Z,0.90
2022-08-24T13:10:11.963Z,0.73
2022-08-24T13:13:21.170Z,0.90
2022-08-24T13:16:47.609Z,0.65
2022-08-24T13:20:18.558Z,0.60
2022-08-24T13:23:22.706Z,1.00
2022-08-24T13:26:27.722Z,0.68
2022-08-24T13:29:34.952Z,0.90
2022-08-24T13:32:40.818Z,0.77
2022-08-24T13:35:57.323Z,0.70
2022-08-24T13:39:08.112Z,0.65
2022-08-24T13:42:29.910Z,1.02
2022-08-24T13:48:48.319Z,0.80
2022-08-24T13:51:54.364Z,0.73
2022-08-24T13:55:23.271Z,0.70
2022-08-24T13:58:36.366Z,0.82
2022-08-24T14:01:51.118Z,0.80
2022-08-24T14:04:56.690Z,0.88
2022-08-24T14:08:11.066Z,0.70
2022-08-24T14:11:19.194Z,1.02
2022-08-24T14:14:34.727Z,0.80
2022-08-24T14:17:55.389Z,1.00
2022-08-24T14:21:06.797Z,0.80
2022-08-24T14:24:12.712Z,0.80
2022-08-24T14:27:38.607Z,0.90
2022-08-24T14:30:46.807Z,0.80
2022-08-24T14:34:01.724Z,0.90
2022-08-24T14:40:17.429Z,0.90
2022-08-24T14:46:40.677Z,1.35
2022-08-24T14:49:48.301Z,1.00
2022-08-24T14:53:01.451Z,1.10
2022-08-24T14:56:11.824Z,0.90
2022-08-24T14:59:22.032Z,0.82
2022-08-24T15:03:19.531Z,1.00
2022-08-24T15:06:27.860Z,1.17
2022-08-24T15:09:35.586Z,1.08
2022-08-24T15:12:39.765Z,0.80
2022-08-24T15:15:46.323Z,0.82
2022-08-24T15:18:55.501Z,0.95
2022-08-24T15:22:03.789Z,0.82
2022-08-24T15:25:12.485Z,0.80
2022-08-24T15:28:23.929Z,1.27
2022-08-24T15:34:42.799Z,1.08
2022-08-24T15:37:45.671Z,0.98
2022-08-24T15:40:49.129Z,0.90
2022-08-24T15:43:59.740Z,1.20
2022-08-24T15:47:05.717Z,1.10
2022-08-24T15:50:22.210Z,1.15
2022-08-24T15:53:34.603Z,1.02
2022-08-24T15:56:42.705Z,0.82
2022-08-24T15:59:48.535Z,0.98
2022-08-24T16:02:50.274Z,0.80
2022-08-24T16:05:56.313Z,0.98
2022-08-24T16:09:01.942Z,0.70
2022-08-24T16:12:07.788Z,0.80
2022-08-24T16:15:16.950Z,0.77
2022-08-24T16:18:21.420Z,1.08
2022-08-24T16:21:34.411Z,0.80
2022-08-24T16:24:39.215Z,0.90
2022-08-24T16:27:58.083Z,0.80
2022-08-24T16:31:07.758Z,0.90
2022-08-24T16:34:19.431Z,0.82
2022-08-24T16:37:25.155Z,1.00
2022-08-24T16:40:28.134Z,0.80
2022-08-24T16:43:31.678Z,0.90
2022-08-24T16:46:34.314Z,0.90
2022-08-24T16:49:39.230Z,0.60
2022-08-24T16:52:43.296Z,0.80
2022-08-24T16:55:47.982Z,0.90
2022-08-24T16:58:50.900Z,0.80
2022-08-24T17:01:53.812Z,1.50
2022-08-24T17:04:56.827Z,1.40
2022-08-24T17:08:01.787Z,1.23
2022-08-24T17:11:04.856Z,1.23
2022-08-24T17:14:07.959Z,1.40
2022-08-24T17:17:14.229Z,1.15
2022-08-24T17:20:16.987Z,1.00
2022-08-24T17:23:21.471Z,0.85
2022-08-24T17:26:24.369Z,1.33
2022-08-24T17:29:27.295Z,1.50
2022-08-24T17:32:30.277Z,1.17
2022-08-24T17:35:33.237Z,2.30
2022-08-24T17:38:42.810Z,1.73
2022-08-24T17:41:45.459Z,1.10
2022-08-24T17:44:48.446Z,1.35
2022-08-24T17:47:52.466Z,0.90
2022-08-24T17:50:55.539Z,1.20
2022-08-24T17:53:59.555Z,1.27
2022-08-24T17:57:02.537Z,1.10
2022-08-24T18:00:06.068Z,1.40
2022-08-24T18:03:12.305Z,1.52
2022-08-24T18:06:18.110Z,1.30
2022-08-24T18:09:29.484Z,1.27
2022-08-24T18:12:32.862Z,1.15
2022-08-24T18:18:39.745Z,1.40
2022-08-24T18:21:42.725Z,1.23
2022-08-24T18:24:46.850Z,1.42
2022-08-24T18:27:52.603Z,1.50
2022-08-24T18:30:55.286Z,1.75
2022-08-24T18:33:57.946Z,1.48
2022-08-24T18:37:01.259Z,1.83
2022-08-24T18:40:06.509Z,3.58
2022-08-24T18:43:09.936Z,1.80
2022-08-24T18:46:13.153Z,2.53
2022-08-24T18:49:15.887Z,1.73
2022-08-24T18:55:24.366Z,2.20
2022-08-24T18:58:27.031Z,2.15
2022-08-24T19:01:31.822Z,2.67
2022-08-24T19:04:35.353Z,2.17
2022-08-24T19:07:41.056Z,1.80
2022-08-24T19:10:45.825Z,2.80
2022-08-24T19:13:48.510Z,1.80
2022-08-24T19:19:55.396Z,2.03
2022-08-24T19:23:01.606Z,1.95
2022-08-24T19:26:06.178Z,2.17
2022-08-24T19:29:08.949Z,2.40
2022-08-24T19:32:13.893Z,1.52
2022-08-24T19:35:25.115Z,1.67
2022-08-24T19:38:28.021Z,1.40
2022-08-24T19:41:36.897Z,1.90
2022-08-24T19:44:57.876Z,1.50
2022-08-24T19:48:00.674Z,1.60
2022-08-24T19:54:07.009Z,2.63
2022-08-24T19:57:31.640Z,1.57
2022-08-24T20:00:39.182Z,1.80
2022-08-24T20:03:42.273Z,1.90
2022-08-24T20:06:44.934Z,1.90
2022-08-24T20:09:47.852Z,2.22
2022-08-24T20:15:55.572Z,1.67
2022-08-24T20:19:00.065Z,2.93
2022-08-24T20:22:02.820Z,2.07
2022-08-24T20:25:17.179Z,2.23
2022-08-24T20:28:29.768Z,1.70
2022-08-24T20:31:33.986Z,1.90
2022-08-24T20:34:36.787Z,2.20
2022-08-24T20:37:41.366Z,2.22
2022-08-24T20:40:43.945Z,1.90
2022-08-24T20:43:48.092Z,1.60
2022-08-24T20:46:51.097Z,2.00
2022-08-24T20:49:53.927Z,1.60
2022-08-24T20:52:56.739Z,1.42
2022-08-24T20:56:01.697Z,1.83
2022-08-24T20:59:08.969Z,1.50
2022-08-24T21:02:11.798Z,1.70
2022-08-24T21:05:14.503Z,1.80
2022-08-24T21:08:17.429Z,1.60
2022-08-24T21:14:25.289Z,2.00
2022-08-24T21:17:28.076Z,1.50
2022-08-24T21:20:31.251Z,1.65
2022-08-24T21:23:34.329Z,2.03
2022-08-24T21:26:36.939Z,2.23
2022-08-24T21:29:41.051Z,3.05
2022-08-24T21:33:01.307Z,6.63
2022-08-24T21:36:04.463Z,2.43
2022-08-24T21:39:10.754Z,1.70
2022-08-24T21:42:14.199Z,1.80
2022-08-24T21:45:21.061Z,2.67
2022-08-24T21:48:23.894Z,1.93
2022-08-24T21:51:26.584Z,2.05
2022-08-24T21:54:29.311Z,1.75
2022-08-24T21:57:31.995Z,1.98
2022-08-24T22:00:36.161Z,1.92
2022-08-24T22:03:40.405Z,2.27
2022-08-24T22:06:43.285Z,1.90
2022-08-24T22:09:46.037Z,1.67
2022-08-24T22:12:48.933Z,1.88
2022-08-24T22:15:52.992Z,2.13
2022-08-24T22:18:55.681Z,2.17
2022-08-24T22:21:58.227Z,1.88
2022-08-24T22:25:01.101Z,1.95
2022-08-24T22:28:04.207Z,1.60
2022-08-24T22:31:18.088Z,2.00
2022-08-24T22:34:21.352Z,1.77
2022-08-24T22:37:24.241Z,1.83
2022-08-24T22:40:27.176Z,1.80
2022-08-24T22:43:51.206Z,2.37
2022-08-24T22:46:57.192Z,1.70
2022-08-24T22:50:00.677Z,1.57
2022-08-24T22:53:03.867Z,1.60
2022-08-24T22:56:14.942Z,1.90
2022-08-24T22:59:20.605Z,2.03
2022-08-24T23:02:24.866Z,1.83
2022-08-24T23:05:27.703Z,2.10
2022-08-24T23:08:30.374Z,1.60
2022-08-24T23:11:33.257Z,1.98
2022-08-24T23:14:35.996Z,1.70
2022-08-24T23:17:40.018Z,2.00
2022-08-24T23:20:41.630Z,1.93
2022-08-24T23:23:44.478Z,2.03
2022-08-24T23:26:48.900Z,1.93
2022-08-24T23:29:51.770Z,1.57
2022-08-24T23:32:55.817Z,1.95
2022-08-24T23:35:58.550Z,2.13
2022-08-24T23:39:04.984Z,2.27
2022-08-24T23:42:08.074Z,2.63
2022-08-24T23:48:16.714Z,2.10
2022-08-24T23:51:20.175Z,2.10
2022-08-24T23:54:25.819Z,1.87
2022-08-24T23:57:29.292Z,2.00
